createdAt,value
2018-09-14T00:01:49.054Z,78.90
2018-09-14T00:04:18.464Z,78.10
2018-09-14T00:06:47.920Z,77.10
2018-09-14T00:09:17.343Z,76.60
2018-09-14T00:11:46.736Z,76.80
2018-09-14T00:14:16.107Z,77.70
2018-09-14T00:16:45.427Z,77.40
2018-09-14T00:19:14.819Z,77.90
2018-09-14T00:21:44.021Z,78.60
2018-09-14T00:24:14.230Z,79.20
2018-09-14T00:26:44.081Z,79.50
2018-09-14T00:29:13.419Z,81.30
2018-09-14T00:31:42.829Z,82.70
2018-09-14T00:34:12.231Z,83.30
2018-09-14T00:36:41.471Z,85.40
2018-09-14T00:39:11.437Z,84.30
2018-09-14T00:41:40.829Z,84.20
2018-09-14T00:44:10.852Z,83.10
2018-09-14T00:46:40.313Z,83.20
2018-09-14T00:49:10.731Z,82.80
2018-09-14T00:51:40.313Z,82.90
2018-09-14T00:54:09.700Z,83.10
2018-09-14T00:56:39.248Z,84.10
2018-09-14T00:59:08.876Z,82.90
2018-09-14T01:01:38.381Z,82.50
2018-09-14T01:04:09.040Z,81.80
2018-09-14T01:06:38.263Z,80.60
2018-09-14T01:09:13.671Z,79.60
2018-09-14T01:11:43.246Z,78.70
2018-09-14T01:14:12.690Z,78.30
2018-09-14T01:16:42.475Z,77.70
2018-09-14T01:19:12.115Z,77.20
2018-09-14T01:21:41.563Z,76.80
2018-09-14T01:24:11.118Z,76.20
2018-09-14T01:26:40.622Z,76.00
2018-09-14T01:29:11.090Z,77.60
2018-09-14T01:31:40.936Z,78.70
2018-09-14T01:34:10.232Z,80.40
2018-09-14T01:36:40.360Z,82.30
2018-09-14T01:39:11.774Z,83.70
2018-09-14T01:41:41.448Z,83.70
2018-09-14T01:44:10.885Z,83.90
2018-09-14T01:46:41.114Z,84.10
2018-09-14T01:49:11.088Z,82.90
2018-09-14T01:51:41.326Z,82.60
2018-09-14T01:54:10.825Z,81.80
2018-09-14T01:56:40.205Z,82.40
2018-09-14T01:59:09.482Z,81.80
2018-09-14T02:01:38.891Z,82.30
2018-09-14T02:04:08.419Z,81.40
2018-09-14T02:06:38.048Z,82.40
2018-09-14T02:09:10.226Z,81.00
2018-09-14T02:11:39.834Z,80.70
2018-09-14T02:14:09.367Z,79.80
2018-09-14T02:16:38.608Z,79.50
2018-09-14T02:19:08.098Z,79.50
2018-09-14T02:21:37.356Z,80.70
2018-09-14T02:24:06.861Z,82.20
2018-09-14T02:26:36.277Z,82.60
2018-09-14T02:29:05.854Z,83.00
2018-09-14T02:31:35.479Z,83.70
2018-09-14T02:34:04.842Z,82.80
2018-09-14T02:36:34.365Z,83.60
2018-09-14T02:39:04.682Z,83.70
2018-09-14T02:41:33.881Z,83.50
2018-09-14T02:44:03.369Z,84.20
2018-09-14T02:46:35.066Z,85.30
2018-09-14T02:49:09.179Z,84.80
2018-09-14T02:51:39.147Z,85.10
2018-09-14T02:54:10.470Z,85.70
2018-09-14T02:56:42.794Z,86.30
2018-09-14T03:01:55.180Z,88.10
2018-09-14T03:04:24.465Z,88.30
2018-09-14T03:06:54.584Z,88.20
2018-09-14T03:09:24.069Z,88.30
2018-09-14T03:11:54.130Z,87.50
2018-09-14T03:14:25.172Z,87.20
2018-09-14T03:16:55.236Z,87.20
2018-09-14T03:19:25.082Z,87.20
2018-09-14T03:21:54.228Z,86.90
2018-09-14T03:24:24.586Z,86.60
2018-09-14T03:26:54.851Z,85.40
2018-09-14T03:29:24.802Z,85.30
2018-09-14T03:31:55.065Z,85.70
2018-09-14T03:34:25.306Z,85.30
2018-09-14T03:36:54.742Z,84.90
2018-09-14T03:39:24.769Z,84.40
2018-09-14T03:41:54.953Z,83.80
2018-09-14T03:44:24.277Z,85.00
2018-09-14T03:46:54.255Z,84.50
2018-09-14T03:49:23.800Z,83.30
2018-09-14T03:51:53.336Z,82.60
2018-09-14T03:54:22.939Z,81.20
2018-09-14T03:56:52.467Z,80.30
2018-09-14T03:59:21.718Z,79.30
2018-09-14T04:01:51.180Z,78.80
2018-09-14T04:04:20.737Z,78.30
2018-09-14T04:06:50.852Z,78.30
2018-09-14T04:09:20.129Z,78.40
2018-09-14T04:11:49.660Z,78.40
2018-09-14T04:14:18.873Z,78.80
2018-09-14T04:16:48.272Z,78.90
2018-09-14T04:19:17.853Z,79.20
2018-09-14T04:21:48.433Z,79.20
2018-09-14T04:24:18.825Z,79.60
2018-09-14T04:26:48.308Z,80.90
2018-09-14T04:29:17.584Z,81.00
2018-09-14T04:31:47.116Z,81.30
2018-09-14T04:34:16.691Z,82.40
2018-09-14T04:36:46.367Z,82.50
2018-09-14T04:39:15.633Z,83.20
2018-09-14T04:41:45.240Z,83.90
2018-09-14T04:44:15.773Z,84.20
2018-09-14T04:46:45.995Z,83.80
2018-09-14T04:49:27.584Z,84.70
2018-09-14T04:51:57.575Z,87.20
2018-09-14T04:54:26.927Z,86.50
2018-09-14T04:56:56.334Z,87.30
2018-09-14T04:59:25.929Z,88.10
2018-09-14T05:01:55.325Z,89.00
2018-09-14T05:04:25.630Z,89.80
2018-09-14T05:06:54.878Z,90.10
2018-09-14T05:09:28.183Z,90.30
2018-09-14T05:12:01.599Z,90.20
2018-09-14T05:14:31.379Z,90.20
2018-09-14T05:17:00.652Z,90.10
2018-09-14T05:19:30.195Z,89.70
2018-09-14T05:21:59.825Z,89.40
2018-09-14T05:24:29.578Z,89.00
2018-09-14T05:26:59.435Z,89.40
2018-09-14T05:29:29.348Z,87.50
2018-09-14T05:31:58.949Z,86.90
2018-09-14T05:34:28.432Z,85.40
2018-09-14T05:36:59.643Z,84.00
2018-09-14T05:39:29.078Z,83.90
2018-09-14T05:41:58.512Z,83.00
2018-09-14T05:44:27.926Z,82.90
2018-09-14T05:46:57.360Z,82.00
2018-09-14T05:49:26.888Z,81.60
2018-09-14T05:51:57.037Z,80.80
2018-09-14T05:54:26.847Z,80.10
2018-09-14T05:56:56.495Z,79.00
2018-09-14T05:59:25.562Z,78.50
2018-09-14T06:01:55.894Z,78.30
2018-09-14T06:04:25.373Z,77.70
2018-09-14T06:06:54.499Z,78.90
2018-09-14T06:09:25.326Z,78.90
2018-09-14T06:11:54.241Z,78.80
2018-09-14T06:14:25.236Z,77.80
2018-09-14T06:16:56.564Z,77.50
2018-09-14T06:19:26.696Z,77.50
2018-09-14T06:21:56.013Z,76.60
2018-09-14T06:24:26.796Z,75.60
2018-09-14T06:26:56.315Z,75.60
2018-09-14T06:29:26.105Z,75.50
2018-09-14T06:31:55.636Z,75.60
2018-09-14T06:34:25.159Z,75.40
2018-09-14T06:36:56.576Z,75.30
2018-09-14T06:39:26.476Z,75.00
2018-09-14T06:41:56.050Z,74.90
2018-09-14T06:44:25.553Z,74.70
2018-09-14T06:46:54.994Z,74.20
2018-09-14T06:49:25.147Z,73.80
2018-09-14T06:51:55.170Z,73.30
2018-09-14T06:54:25.522Z,73.00
2018-09-14T06:56:55.354Z,72.90
2018-09-14T06:59:25.706Z,72.60
2018-09-14T07:01:56.215Z,72.50
2018-09-14T07:04:26.071Z,72.30
2018-09-14T07:06:55.969Z,72.10
2018-09-14T07:09:26.549Z,72.00
2018-09-14T07:11:56.711Z,71.80
2018-09-14T07:14:28.132Z,71.60
2018-09-14T07:16:57.527Z,71.60
2018-09-14T07:19:26.968Z,71.50
2018-09-14T07:21:56.554Z,71.50
2018-09-14T07:24:26.783Z,71.30
2018-09-14T07:26:56.216Z,71.10
2018-09-14T07:29:26.731Z,71.00
2018-09-14T07:31:58.005Z,70.70
2018-09-14T07:34:27.412Z,70.60
2018-09-14T07:36:58.316Z,70.40
2018-09-14T07:39:28.200Z,70.30
2018-09-14T07:41:58.315Z,70.00
2018-09-14T07:44:27.979Z,69.80
2018-09-14T07:47:00.946Z,69.70
2018-09-14T07:49:30.097Z,69.80
2018-09-14T07:51:59.372Z,69.80
2018-09-14T07:54:29.029Z,69.80
2018-09-14T07:56:58.478Z,69.60
2018-09-14T07:59:42.416Z,69.60
2018-09-14T08:02:12.965Z,69.60
2018-09-14T08:04:42.658Z,69.50
2018-09-14T08:07:13.419Z,69.50
2018-09-14T08:09:43.599Z,69.30
2018-09-14T08:12:14.704Z,69.40
2018-09-14T08:14:45.534Z,69.40
2018-09-14T08:17:19.460Z,69.30
2018-09-14T08:20:05.586Z,69.50
2018-09-14T08:22:35.483Z,69.20
2018-09-14T08:25:04.816Z,70.10
2018-09-14T08:27:49.247Z,70.00
2018-09-14T08:30:39.111Z,70.40
2018-09-14T08:33:13.065Z,70.30
2018-09-14T08:35:43.804Z,70.00
2018-09-14T08:38:12.978Z,69.70
2018-09-14T08:40:42.006Z,69.30
2018-09-14T08:43:11.333Z,69.10
2018-09-14T08:45:40.778Z,68.70
2018-09-14T08:48:11.222Z,68.80
2018-09-14T08:50:40.604Z,68.80
2018-09-14T08:53:10.088Z,68.60
2018-09-14T08:55:39.620Z,68.40
2018-09-14T08:58:09.845Z,68.40
2018-09-14T09:02:46.548Z,68.40
2018-09-14T09:05:17.669Z,68.40
2018-09-14T09:07:46.912Z,67.80
2018-09-14T09:10:16.385Z,68.30
2018-09-14T09:12:47.625Z,68.30
2018-09-14T09:15:19.290Z,68.10
2018-09-14T09:18:06.574Z,69.40
2018-09-14T09:20:37.176Z,69.30
2018-09-14T09:23:08.324Z,69.00
2018-09-14T09:25:42.375Z,69.10
2018-09-14T09:28:13.915Z,69.00
2018-09-14T09:31:08.221Z,68.80
2018-09-14T09:33:55.338Z,68.60
2018-09-14T09:36:26.296Z,68.00
2018-09-14T09:38:56.048Z,67.70
2018-09-14T09:41:27.636Z,67.40
2018-09-14T09:43:57.222Z,67.20
2018-09-14T09:46:26.619Z,67.10
2018-09-14T09:48:56.314Z,66.90
2018-09-14T09:51:26.536Z,66.90
2018-09-14T09:53:57.105Z,66.80
2018-09-14T09:56:26.397Z,67.10
2018-09-14T09:58:55.554Z,66.90
2018-09-14T10:01:34.317Z,66.90
2018-09-14T10:04:08.970Z,67.20
2018-09-14T10:06:39.342Z,67.50
2018-09-14T10:09:09.437Z,67.40
2018-09-14T10:11:38.573Z,67.10
2018-09-14T10:14:08.129Z,67.00
2018-09-14T10:16:38.220Z,66.80
2018-09-14T10:19:08.620Z,66.60
2018-09-14T10:21:37.761Z,66.30
2018-09-14T10:24:09.226Z,66.20
2018-09-14T10:26:39.273Z,66.00
2018-09-14T10:29:08.620Z,66.00
2018-09-14T10:31:38.133Z,65.70
2018-09-14T10:34:07.654Z,65.50
2018-09-14T10:36:37.031Z,65.20
2018-09-14T10:39:09.476Z,65.00
2018-09-14T10:41:39.100Z,64.70
2018-09-14T10:44:08.502Z,64.50
2018-09-14T10:46:37.787Z,64.20
2018-09-14T10:49:07.444Z,63.90
2018-09-14T10:51:36.685Z,63.80
2018-09-14T10:54:06.240Z,63.80
2018-09-14T10:56:35.817Z,63.70
2018-09-14T10:59:05.228Z,64.10
2018-09-14T11:01:35.094Z,63.50
2018-09-14T11:04:05.376Z,63.60
2018-09-14T11:06:34.730Z,63.70
2018-09-14T11:09:06.650Z,64.00
2018-09-14T11:11:41.532Z,64.00
2018-09-14T11:14:12.005Z,64.10
2018-09-14T11:16:42.811Z,64.30
2018-09-14T11:19:20.331Z,64.30
2018-09-14T11:21:51.308Z,64.40
2018-09-14T11:24:20.883Z,64.60
2018-09-14T11:26:50.247Z,64.60
2018-09-14T11:29:19.855Z,64.30
2018-09-14T11:31:51.331Z,63.70
2018-09-14T11:34:20.675Z,64.10
2018-09-14T11:36:50.200Z,63.80
2018-09-14T11:39:19.618Z,63.70
2018-09-14T11:41:49.026Z,62.90
2018-09-14T11:44:18.370Z,62.10
2018-09-14T11:46:47.858Z,62.10
2018-09-14T11:49:19.028Z,62.10
2018-09-14T11:51:49.238Z,62.90
2018-09-14T11:54:18.766Z,62.90
2018-09-14T11:56:48.597Z,62.80
2018-09-14T11:59:18.439Z,62.60
2018-09-14T12:01:52.020Z,62.10
2018-09-14T12:04:21.609Z,61.90
2018-09-14T12:06:52.878Z,61.60
2018-09-14T12:09:22.386Z,61.20
2018-09-14T12:11:53.025Z,61.10
2018-09-14T12:14:22.699Z,60.90
2018-09-14T12:16:52.297Z,60.70
2018-09-14T12:19:21.945Z,60.50
2018-09-14T12:21:51.621Z,60.00
2018-09-14T12:24:21.476Z,59.70
2018-09-14T12:27:04.828Z,60.10
2018-09-14T12:29:36.152Z,60.00
2018-09-14T12:32:06.112Z,59.90
2018-09-14T12:34:35.590Z,59.60
2018-09-14T12:37:06.804Z,60.50
2018-09-14T12:39:48.840Z,60.50
2018-09-14T12:42:18.475Z,60.60
2018-09-14T12:44:47.915Z,60.60
2018-09-14T12:47:19.760Z,61.30
2018-09-14T12:49:50.723Z,60.60
2018-09-14T12:52:21.317Z,61.70
2018-09-14T12:54:50.955Z,61.40
2018-09-14T12:57:20.377Z,61.30
2018-09-14T12:59:49.760Z,61.40
2018-09-14T13:02:19.120Z,61.30
2018-09-14T13:04:49.502Z,60.60
2018-09-14T13:07:19.402Z,60.20
2018-09-14T13:09:49.189Z,60.20
2018-09-14T13:12:19.364Z,60.00
2018-09-14T13:14:49.228Z,60.20
2018-09-14T13:17:19.063Z,60.30
2018-09-14T13:19:48.747Z,60.50
2018-09-14T13:22:18.759Z,59.90
2018-09-14T13:24:48.569Z,60.10
2018-09-14T13:27:18.361Z,60.40
2018-09-14T13:29:48.024Z,60.20
2018-09-14T13:32:18.057Z,60.10
2018-09-14T13:34:47.981Z,60.20
2018-09-14T13:37:17.430Z,59.80
2018-09-14T13:39:47.230Z,59.90
2018-09-14T13:42:17.782Z,59.60
2018-09-14T13:44:47.128Z,59.70
2018-09-14T13:47:18.968Z,59.60
2018-09-14T13:49:52.605Z,59.70
2018-09-14T13:52:22.375Z,59.60
2018-09-14T13:54:54.209Z,59.90
2018-09-14T13:57:26.123Z,59.50
2018-09-14T13:59:57.410Z,59.00
2018-09-14T14:02:28.585Z,58.60
2018-09-14T14:04:58.705Z,57.90
2018-09-14T14:07:29.248Z,57.10
2018-09-14T14:10:00.723Z,56.60
2018-09-14T14:12:32.353Z,55.60
2018-09-14T14:15:02.628Z,55.90
2018-09-14T14:17:32.974Z,55.50
2018-09-14T14:20:02.730Z,55.80
2018-09-14T14:22:33.992Z,56.50
2018-09-14T14:25:03.615Z,56.60
2018-09-14T14:27:33.587Z,56.90
2018-09-14T14:30:04.411Z,57.30
2018-09-14T14:32:34.631Z,57.20
2018-09-14T14:35:05.027Z,57.50
2018-09-14T14:37:35.590Z,57.60
2018-09-14T14:40:09.353Z,56.80
2018-09-14T14:42:39.887Z,56.90
2018-09-14T14:45:11.568Z,57.30
2018-09-14T14:47:41.746Z,57.10
2018-09-14T14:50:12.858Z,56.60
2018-09-14T14:52:44.419Z,56.60
2018-09-14T14:55:16.031Z,56.50
2018-09-14T14:57:52.124Z,56.20
2018-09-14T15:00:23.390Z,55.70
2018-09-14T15:02:55.923Z,54.70
2018-09-14T15:05:26.821Z,54.10
2018-09-14T15:07:58.914Z,54.50
2018-09-14T15:10:29.410Z,54.70
2018-09-14T15:13:00.368Z,54.70
2018-09-14T15:15:42.221Z,54.70
2018-09-14T15:18:13.279Z,54.20
2018-09-14T15:20:47.170Z,54.00
2018-09-14T15:23:18.635Z,53.70
2018-09-14T15:25:53.480Z,54.00
2018-09-14T15:28:26.340Z,54.30
2018-09-14T15:30:57.035Z,54.60
2018-09-14T15:33:28.056Z,55.00
2018-09-14T15:38:40.281Z,55.40
2018-09-14T15:41:11.282Z,55.70
2018-09-14T15:43:42.635Z,56.00
2018-09-14T15:46:13.349Z,56.10
2018-09-14T15:48:43.946Z,57.00
2018-09-14T15:51:15.197Z,56.30
2018-09-14T15:53:45.881Z,56.20
2018-09-14T15:56:19.464Z,55.40
2018-09-14T15:58:50.561Z,56.60
2018-09-14T16:01:26.023Z,57.00
2018-09-14T16:03:57.160Z,57.00
2018-09-14T16:06:28.952Z,57.10
2018-09-14T16:09:03.642Z,56.60
2018-09-14T16:11:36.089Z,56.60
2018-09-14T16:14:09.288Z,57.00
2018-09-14T16:16:42.848Z,56.50
2018-09-14T16:19:16.378Z,56.60
2018-09-14T16:21:47.038Z,56.40
2018-09-14T16:24:18.466Z,56.40
2018-09-14T16:26:52.627Z,56.60
2018-09-14T16:29:25.783Z,56.70
2018-09-14T16:31:57.389Z,56.70
2018-09-14T16:37:18.607Z,56.70
2018-09-14T16:39:49.596Z,57.10
2018-09-14T16:42:21.060Z,57.00
2018-09-14T16:44:56.748Z,57.20
2018-09-14T16:47:27.208Z,57.40
2018-09-14T16:49:57.792Z,57.60
2018-09-14T16:52:31.344Z,57.90
2018-09-14T16:57:49.639Z,58.10
2018-09-14T17:00:22.230Z,58.30
2018-09-14T17:02:54.536Z,58.50
2018-09-14T17:05:25.119Z,58.60
2018-09-14T17:07:55.776Z,58.60
2018-09-14T17:10:28.074Z,58.50
2018-09-14T17:12:59.320Z,58.40
2018-09-14T17:15:31.549Z,58.40
2018-09-14T17:18:06.739Z,58.10
2018-09-14T17:20:41.649Z,58.00
2018-09-14T17:23:12.399Z,58.20
2018-09-14T17:25:42.879Z,58.40
2018-09-14T17:28:13.655Z,58.70
2018-09-14T17:30:46.899Z,59.30
2018-09-14T17:33:19.370Z,59.50
2018-09-14T17:35:50.453Z,59.70
2018-09-14T17:38:23.961Z,59.70
2018-09-14T17:40:55.315Z,59.70
2018-09-14T17:43:26.712Z,60.00
2018-09-14T17:45:57.825Z,60.20
2018-09-14T17:48:29.219Z,60.40
2018-09-14T17:51:00.314Z,60.40
2018-09-14T17:53:31.459Z,60.20
2018-09-14T17:56:02.871Z,61.00
2018-09-14T17:58:33.709Z,60.20
2018-09-14T18:01:05.120Z,60.30
2018-09-14T18:03:38.824Z,60.20
2018-09-14T18:06:09.698Z,60.20
2018-09-14T18:08:41.169Z,60.30
2018-09-14T18:11:15.548Z,60.50
2018-09-14T18:16:29.084Z,61.20
2018-09-14T18:19:00.681Z,61.40
2018-09-14T18:21:31.959Z,61.60
2018-09-14T18:24:04.033Z,61.80
2018-09-14T18:26:35.272Z,62.20
2018-09-14T18:29:06.796Z,62.50
2018-09-14T18:31:36.994Z,62.80
2018-09-14T18:34:08.260Z,63.00
2018-09-14T18:36:40.319Z,63.20
2018-09-14T18:39:12.806Z,63.50
2018-09-14T18:41:45.050Z,63.70
2018-09-14T18:44:16.156Z,64.10
2018-09-14T18:46:47.421Z,64.40
2018-09-14T18:49:19.848Z,64.90
2018-09-14T18:51:51.750Z,65.20
2018-09-14T18:54:22.808Z,65.60
2018-09-14T18:56:54.265Z,65.80
2018-09-14T18:59:25.158Z,66.00
2018-09-14T19:01:57.304Z,66.20
2018-09-14T19:04:32.692Z,66.40
2018-09-14T19:07:03.518Z,67.10
2018-09-14T19:09:36.037Z,66.80
2018-09-14T19:12:06.798Z,66.80
2018-09-14T19:14:38.385Z,66.70
2018-09-14T19:17:11.390Z,66.90
2018-09-14T19:19:44.596Z,67.00
2018-09-14T19:22:16.514Z,66.90
2018-09-14T19:24:47.571Z,67.00
2018-09-14T19:27:19.109Z,67.10
2018-09-14T19:29:52.448Z,67.10
2018-09-14T19:32:23.919Z,67.10
2018-09-14T19:34:59.308Z,66.90
2018-09-14T19:37:30.087Z,66.80
2018-09-14T19:40:05.767Z,66.10
2018-09-14T19:42:36.462Z,66.50
2018-09-14T19:45:06.939Z,66.60
2018-09-14T19:47:38.437Z,66.70
2018-09-14T19:50:11.147Z,66.80
2018-09-14T19:52:41.445Z,66.90
2018-09-14T19:55:12.159Z,67.00
2018-09-14T19:57:42.251Z,67.00
2018-09-14T20:00:12.790Z,66.90
2018-09-14T20:02:43.295Z,67.00
2018-09-14T20:05:13.497Z,66.80
2018-09-14T20:07:44.041Z,67.10
2018-09-14T20:10:14.862Z,67.20
2018-09-14T20:12:44.788Z,67.60
2018-09-14T20:15:15.037Z,68.00
2018-09-14T20:17:47.800Z,68.30
2018-09-14T20:20:17.717Z,68.40
2018-09-14T20:22:51.247Z,68.60
2018-09-14T20:25:22.919Z,68.00
2018-09-14T20:27:53.046Z,67.30
2018-09-14T20:30:22.653Z,67.60
2018-09-14T20:32:52.482Z,67.70
2018-09-14T20:35:22.751Z,67.70
2018-09-14T20:37:52.528Z,67.70
2018-09-14T20:40:27.138Z,67.80
2018-09-14T20:43:12.881Z,68.00
2018-09-14T20:45:44.927Z,68.50
2018-09-14T20:48:15.920Z,68.90
2018-09-14T20:50:46.473Z,69.50
2018-09-14T20:53:16.852Z,69.60
2018-09-14T20:55:48.766Z,69.80
2018-09-14T20:58:35.994Z,69.50
2018-09-14T21:01:06.741Z,69.60
2018-09-14T21:03:37.070Z,69.30
2018-09-14T21:06:08.658Z,70.00
2018-09-14T21:08:38.126Z,69.10
2018-09-14T21:11:07.756Z,69.00
2018-09-14T21:13:36.831Z,68.30
2018-09-14T21:16:06.644Z,68.30
2018-09-14T21:18:36.782Z,68.30
2018-09-14T21:21:06.142Z,68.00
2018-09-14T21:23:35.662Z,67.60
2018-09-14T21:26:05.342Z,68.20
2018-09-14T21:28:35.086Z,67.90
2018-09-14T21:31:05.332Z,67.10
2018-09-14T21:33:35.750Z,66.70
2018-09-14T21:36:05.154Z,66.50
2018-09-14T21:38:35.633Z,66.30
2018-09-14T21:41:04.797Z,66.20
2018-09-14T21:43:34.519Z,66.10
2018-09-14T21:46:04.974Z,66.20
2018-09-14T21:48:34.536Z,66.00
2018-09-14T21:51:03.983Z,66.00
2018-09-14T21:53:33.975Z,65.90
2018-09-14T21:56:03.757Z,66.00
2018-09-14T21:58:35.535Z,66.20
2018-09-14T22:01:14.062Z,66.10
2018-09-14T22:03:45.214Z,65.80
2018-09-14T22:06:14.894Z,65.50
2018-09-14T22:08:45.303Z,65.50
2018-09-14T22:11:22.464Z,65.60
2018-09-14T22:13:55.322Z,65.60
2018-09-14T22:16:25.592Z,66.10
2018-09-14T22:18:54.816Z,66.60
2018-09-14T22:21:25.020Z,66.40
2018-09-14T22:23:54.387Z,66.20
2018-09-14T22:26:23.829Z,66.60
2018-09-14T22:28:53.338Z,66.20
2018-09-14T22:31:23.762Z,66.50
2018-09-14T22:33:56.845Z,66.60
2018-09-14T22:36:28.198Z,66.20
2018-09-14T22:38:58.401Z,66.10
2018-09-14T22:41:27.939Z,65.90
2018-09-14T22:43:57.813Z,66.40
2018-09-14T22:46:27.449Z,66.50
2018-09-14T22:48:56.830Z,66.60
2018-09-14T22:51:26.042Z,66.40
2018-09-14T22:53:55.440Z,66.70
2018-09-14T22:56:24.735Z,67.10
2018-09-14T22:58:54.069Z,68.00
2018-09-14T23:01:23.619Z,67.20
2018-09-14T23:03:53.068Z,67.40
2018-09-14T23:06:22.375Z,67.50
2018-09-14T23:08:51.547Z,67.60
2018-09-14T23:11:21.115Z,67.70
2018-09-14T23:13:50.777Z,67.50
2018-09-14T23:16:21.956Z,68.50
2018-09-14T23:18:51.199Z,68.80
2018-09-14T23:21:20.682Z,69.60
2018-09-14T23:23:50.426Z,69.30
2018-09-14T23:26:21.993Z,69.50
2018-09-14T23:28:51.442Z,69.20
2018-09-14T23:31:20.807Z,70.00
2018-09-14T23:33:50.923Z,70.40
2018-09-14T23:36:21.429Z,71.30
2018-09-14T23:38:50.794Z,72.80
2018-09-14T23:41:20.214Z,73.70
2018-09-14T23:43:50.366Z,74.60
2018-09-14T23:46:19.633Z,75.60
2018-09-14T23:48:49.995Z,76.30
2018-09-14T23:51:20.587Z,76.80
2018-09-14T23:53:50.099Z,77.80
2018-09-14T23:56:19.701Z,78.00
2018-09-14T23:58:49.176Z,78.70
